地図

経路データ

SID SEASON NUMBER BASIN SUBBASIN NAME ISO_TIME NATURE LAT LON WMO_WIND WMO_PRES WMO_AGENCY TRACK_TYPE DIST2LAND LANDFALL IFLAG USA_AGENCY USA_ATCF_ID USA_LAT USA_LON USA_RECORD USA_STATUS USA_WIND USA_PRES USA_SSHS USA_R34_NE USA_R34_SE USA_R34_SW USA_R34_NW USA_R50_NE USA_R50_SE USA_R50_SW USA_R50_NW USA_R64_NE USA_R64_SE USA_R64_SW USA_R64_NW USA_POCI USA_ROCI USA_RMW USA_EYE TOKYO_LAT TOKYO_LON TOKYO_GRADE TOKYO_WIND TOKYO_PRES TOKYO_R50_DIR TOKYO_R50_LONG TOKYO_R50_SHORT TOKYO_R30_DIR TOKYO_R30_LONG TOKYO_R30_SHORT TOKYO_LAND CMA_LAT CMA_LON CMA_CAT CMA_WIND CMA_PRES HKO_LAT HKO_LON HKO_CAT HKO_WIND HKO_PRES NEWDELHI_LAT NEWDELHI_LON NEWDELHI_GRADE NEWDELHI_WIND NEWDELHI_PRES NEWDELHI_CI NEWDELHI_DP NEWDELHI_POCI REUNION_LAT REUNION_LON REUNION_TYPE REUNION_WIND REUNION_PRES REUNION_TNUM REUNION_CI REUNION_RMW REUNION_R34_NE REUNION_R34_SE REUNION_R34_SW REUNION_R34_NW REUNION_R50_NE REUNION_R50_SE REUNION_R50_SW REUNION_R50_NW REUNION_R64_NE REUNION_R64_SE REUNION_R64_SW REUNION_R64_NW BOM_LAT BOM_LON BOM_TYPE BOM_WIND BOM_PRES BOM_TNUM BOM_CI BOM_RMW BOM_R34_NE BOM_R34_SE BOM_R34_SW BOM_R34_NW BOM_R50_NE BOM_R50_SE BOM_R50_SW BOM_R50_NW BOM_R64_NE BOM_R64_SE BOM_R64_SW BOM_R64_NW BOM_ROCI BOM_POCI BOM_EYE BOM_POS_METHOD BOM_PRES_METHOD NADI_LAT NADI_LON NADI_CAT NADI_WIND NADI_PRES WELLINGTON_LAT WELLINGTON_LON WELLINGTON_WIND WELLINGTON_PRES DS824_LAT DS824_LON DS824_STAGE DS824_WIND DS824_PRES TD9636_LAT TD9636_LON TD9636_STAGE TD9636_WIND TD9636_PRES TD9635_LAT TD9635_LON TD9635_WIND TD9635_PRES TD9635_ROCI NEUMANN_LAT NEUMANN_LON NEUMANN_CLASS NEUMANN_WIND NEUMANN_PRES MLC_LAT MLC_LON MLC_CLASS MLC_WIND MLC_PRES USA_GUST BOM_GUST BOM_GUST_PER REUNION_GUST REUNION_GUST_PER USA_SEAHGT USA_SEARAD_NE USA_SEARAD_SE USA_SEARAD_SW USA_SEARAD_NW STORM_SPEED STORM_DIR
1878188N18299 1878 8 NA CS NOT_NAMED 1878-07-07 06:00:00 TS 17.7000 -61.3000 main 458 425 _____________O -1 17.7000 -61.3000 TS 35 6 289
1878188N18299 1878 8 NA CS NOT_NAMED 1878-07-07 09:00:00 TS 17.8001 -61.5999 main 425 392 _____________P -1 17.8001 -61.5999 TS 40 6 289
1878188N18299 1878 8 NA CS NOT_NAMED 1878-07-07 12:00:00 TS 17.9000 -61.9000 main 392 360 _____________O -1 17.9000 -61.9000 TS 45 6 289
1878188N18299 1878 8 NA CS NOT_NAMED 1878-07-07 15:00:00 TS 18.0000 -62.2000 main 360 327 _____________P -1 18.0000 -62.2000 TS 47 6 289
1878188N18299 1878 8 NA CS NOT_NAMED 1878-07-07 18:00:00 TS 18.1000 -62.5000 main 327 295 _____________O -1 18.1000 -62.5000 TS 50 6 289
1878188N18299 1878 8 NA CS NOT_NAMED 1878-07-07 21:00:00 TS 18.2000 -62.8000 main 295 263 _____________P -1 18.2000 -62.8000 TS 52 6 289
1878188N18299 1878 8 NA CS NOT_NAMED 1878-07-08 00:00:00 TS 18.3000 -63.1000 main 263 232 _____________O -1 18.3000 -63.1000 TS 55 6 289
1878188N18299 1878 8 NA CS NOT_NAMED 1878-07-08 03:00:00 TS 18.4000 -63.4000 main 232 200 _____________P -1 18.4000 -63.4000 TS 55 6 289
1878188N18299 1878 8 NA CS NOT_NAMED 1878-07-08 06:00:00 TS 18.5000 -63.7000 main 200 170 _____________O -1 18.5000 -63.7000 TS 55 6 289
1878188N18299 1878 8 NA CS NOT_NAMED 1878-07-08 09:00:00 TS 18.6000 -64.0000 main 170 141 _____________P -1 18.6000 -64.0000 TS 55 6 289
1878188N18299 1878 8 NA CS NOT_NAMED 1878-07-08 12:00:00 TS 18.7000 -64.3000 main 141 114 _____________O -1 18.7000 -64.3000 TS 55 6 289
1878188N18299 1878 8 NA CS NOT_NAMED 1878-07-08 15:00:00 TS 18.7925 -64.6001 main 114 92 _____________P -1 18.7925 -64.6001 TS 55 6 289
1878188N18299 1878 8 NA CS NOT_NAMED 1878-07-08 18:00:00 TS 18.9000 -64.9000 main 92 79 _____________O -1 18.9000 -64.9000 TS 55 6 292
1878188N18299 1878 8 NA NA NOT_NAMED 1878-07-08 21:00:00 TS 19.0199 -65.1852 main 79 79 _____________P -1 19.0199 -65.1852 TS 55 6 298
1878188N18299 1878 8 NA NA NOT_NAMED 1878-07-09 00:00:00 TS 19.2000 -65.5000 main 90 89 _____________O -1 19.2000 -65.5000 TS 55 8 304
1878188N18299 1878 8 NA NA NOT_NAMED 1878-07-09 03:00:00 TS 19.4701 -65.8924 main 123 123 _____________P -1 19.4701 -65.8924 TS 55 10 309
1878188N18299 1878 8 NA NA NOT_NAMED 1878-07-09 06:00:00 TS 19.8000 -66.3000 main 156 156 _____________O -1 19.8000 -66.3000 TS 55 10 314
1878188N18299 1878 8 NA NA NOT_NAMED 1878-07-09 09:00:00 TS 20.1422 -66.6353 main 190 190 _____________P -1 20.1422 -66.6353 TS 55 10 317
1878188N18299 1878 8 NA NA NOT_NAMED 1878-07-09 12:00:00 TS 20.5000 -67.0000 main 234 234 _____________O -1 20.5000 -67.0000 TS 55 11 312
1878188N18299 1878 8 NA NA NOT_NAMED 1878-07-09 15:00:00 TS 20.8500 -67.4776 main 259 246 _____________P -1 20.8500 -67.4776 TS 55 12 307
1878188N18299 1878 8 NA NA NOT_NAMED 1878-07-09 18:00:00 TS 21.2000 -68.0000 main 252 246 _____________O -1 21.2000 -68.0000 TS 55 12 306
1878188N18299 1878 8 NA NA NOT_NAMED 1878-07-09 21:00:00 TS 21.5499 -68.5002 main 259 259 _____________P -1 21.5499 -68.5002 TS 55 12 307
1878188N18299 1878 8 NA NA NOT_NAMED 1878-07-10 00:00:00 TS 21.9000 -69.0000 main 277 273 _____________O -1 21.9000 -69.0000 TS 55 12 307
1878188N18299 1878 8 NA NA NOT_NAMED 1878-07-10 03:00:00 TS 22.2498 -69.5003 main 291 291 _____________P -1 22.2498 -69.5003 TS 55 12 307
1878188N18299 1878 8 NA NA NOT_NAMED 1878-07-10 06:00:00 TS 22.6000 -70.0000 main 319 317 _____________O -1 22.6000 -70.0000 TS 55 12 307
1878188N18299 1878 8 NA NA NOT_NAMED 1878-07-10 09:00:00 TS 22.9498 -70.5003 main 320 310 _____________P -1 22.9498 -70.5003 TS 55 12 307
1878188N18299 1878 8 NA NA NOT_NAMED 1878-07-10 12:00:00 TS 23.3000 -71.0000 main 312 305 _____________O -1 23.3000 -71.0000 TS 55 12 307
1878188N18299 1878 8 NA NA NOT_NAMED 1878-07-10 15:00:00 TS 23.6498 -71.5003 main 309 309 _____________P -1 23.6498 -71.5003 TS 52 12 307
1878188N18299 1878 8 NA NA NOT_NAMED 1878-07-10 18:00:00 TS 24.0000 -72.0000 main 329 326 _____________O -1 24.0000 -72.0000 TS 50 12 307
1878188N18299 1878 8 NA NA NOT_NAMED 1878-07-10 21:00:00 TS 24.3498 -72.5003 main 350 350 _____________P -1 24.3498 -72.5003 TS 47 12 308
1878188N18299 1878 8 NA NA NOT_NAMED 1878-07-11 00:00:00 TS 24.7000 -73.0000 main 391 391 _____________O -1 24.7000 -73.0000 TS 45 12 308
1878188N18299 1878 8 NA NA NOT_NAMED 1878-07-11 03:00:00 TS 25.0573 -73.5002 main 428 386 _____________P -1 25.0573 -73.5002 TS 45 11 308
1878188N18299 1878 8 NA NA NOT_NAMED 1878-07-11 06:00:00 TS 25.4000 -74.0000 main 386 358 _____________O -1 25.4000 -74.0000 TS 45 11 311
1878188N18299 1878 8 NA NA NOT_NAMED 1878-07-11 09:00:00 TS 25.7661 -74.4172 main 362 315 _____________P -1 25.7661 -74.4172 TS 45 11 304
1878188N18299 1878 8 NA NA NOT_NAMED 1878-07-11 12:00:00 TS 26.0000 -75.0000 main 315 228 _____________O -1 26.0000 -75.0000 TS 45 14 273
1878188N18299 1878 8 NA NA NOT_NAMED 1878-07-11 15:00:00 TS 25.8410 -75.9867 main 215 127 _____________P -1 25.8410 -75.9867 TS 45 19 264
1878188N18299 1878 8 NA NA NOT_NAMED 1878-07-11 18:00:00 TS 25.8000 -77.1000 main 119 102 _____________O -1 25.8000 -77.1000 TS 45 20 286
1878188N18299 1878 8 NA NA NOT_NAMED 1878-07-11 21:00:00 TS 26.3725 -78.1149 main 145 108 _____________P -1 26.3725 -78.1149 TS 42 22 309
1878188N18299 1878 8 NA NA NOT_NAMED 1878-07-12 00:00:00 TS 27.2000 -79.0000 main 108 85 _____________O -1 27.2000 -79.0000 TS 40 21 320
1878188N18299 1878 8 NA NA NOT_NAMED 1878-07-12 03:00:00 TS 27.9941 -79.6681 main 79 36 _____________P -1 27.9941 -79.6681 TS 37 18 325
1878188N18299 1878 8 NA NA NOT_NAMED 1878-07-12 06:00:00 TS 28.7000 -80.2000 main 36 22 _____________O -1 28.7000 -80.2000 TS 35 15 322
1878188N18299 1878 8 NA NA NOT_NAMED 1878-07-12 09:00:00 TS 29.1731 -80.7022 main 22 0 _____________P -1 29.1731 -80.7022 TS 32 12 312
1878188N18299 1878 8 NA NA NOT_NAMED 1878-07-12 12:00:00 TS 29.5000 -81.2000 main 0 _____________O -1 29.5000 -81.2000 TD 30 11 307

IBTrACS Databaseについて

本データベースは、米国NOAAが公開する1842年以降の世界の熱帯低気圧のベストトラックデータアーカイブInternational Best Track Archive for Climate Stewardship (IBTrACS)を、ウェブで閲覧しやすい形式に変換したものです。

最終更新日:2021-10-25